Time;durP1;ratioP1;P1;durP2;ratioP2;P2;SDS_P1;SDS_P2;PMS_P1;PMS_P2;Temp;Humidity;BMP_temperature;BMP_pressure;BME280_temperature;BME280_humidity;BME280_pressure;Samples;Min_cycle;Max_cycle;Signal;HPM_P1;HPM_P2
2022/11/18 00:01:31;;;;;;;4.60;0.80;;;10.70;99.90;;;;;;5073297;28;20025;-76
2022/11/18 00:03:57;;;;;;;2.72;0.77;;;10.70;99.90;;;;;;5074604;28;20040;-76
2022/11/18 00:06:25;;;;;;;4.28;0.85;;;10.60;99.90;;;;;;5073985;28;20473;-76
2022/11/18 00:08:52;;;;;;;7.63;0.75;;;10.70;99.90;;;;;;5074359;28;20040;-76
2022/11/18 00:14:17;;;;;;;1.30;0.47;;;10.70;99.90;;;;;;5074369;28;20480;-76
2022/11/18 00:16:46;;;;;;;2.92;0.63;;;10.70;99.90;;;;;;5073156;28;20074;-76
2022/11/18 00:19:12;;;;;;;5.07;0.60;;;10.60;99.90;;;;;;5074174;28;20074;-77
2022/11/18 00:21:38;;;;;;;3.83;0.70;;;10.70;99.90;;;;;;5073878;28;20103;-77
2022/11/18 00:24:03;;;;;;;3.08;0.47;;;10.70;99.90;;;;;;5074179;28;20465;-76
2022/11/18 00:26:29;;;;;;;3.90;0.75;;;10.70;99.90;;;;;;5072448;28;20034;-77
2022/11/18 00:28:54;;;;;;;2.33;1.23;;;10.70;99.90;;;;;;5072831;28;20436;-76
2022/11/18 00:31:20;;;;;;;2.45;0.90;;;10.60;99.90;;;;;;5073471;28;20036;-77
2022/11/18 00:33:46;;;;;;;5.63;0.82;;;10.60;99.90;;;;;;5074226;28;20086;-76
2022/11/18 00:36:12;;;;;;;2.67;0.70;;;10.70;99.90;;;;;;5074199;28;20473;-76
2022/11/18 00:38:38;;;;;;;2.80;0.90;;;10.70;99.90;;;;;;5072811;28;20466;-77
2022/11/18 00:41:09;;;;;;;1.98;0.70;;;10.70;99.90;;;;;;5073695;28;20032;-76
2022/11/18 00:43:35;;;;;;;1.60;0.35;;;10.70;99.90;;;;;;5073180;28;20016;-76
2022/11/18 00:46:01;;;;;;;2.50;0.80;;;10.70;99.90;;;;;;5072475;28;20086;-76
2022/11/18 00:48:27;;;;;;;3.03;1.15;;;10.80;99.90;;;;;;5071940;28;20074;-77
2022/11/18 00:50:56;;;;;;;1.92;0.85;;;10.80;99.90;;;;;;5072690;28;20420;-76
2022/11/18 00:53:25;;;;;;;3.10;0.80;;;10.80;99.90;;;;;;5071964;28;20025;-77
2022/11/18 00:55:52;;;;;;;2.28;0.68;;;10.80;99.90;;;;;;5072514;28;20116;-76
2022/11/18 00:58:17;;;;;;;1.58;0.98;;;10.80;99.90;;;;;;5072915;28;20466;-76
2022/11/18 01:00:45;;;;;;;2.03;0.60;;;10.80;99.90;;;;;;5072289;28;20035;-75
2022/11/18 01:03:11;;;;;;;3.80;0.70;;;10.80;99.90;;;;;;5073291;28;20077;-75
2022/11/18 01:05:38;;;;;;;1.77;0.60;;;10.80;99.90;;;;;;5071522;28;20111;-76
2022/11/18 01:08:05;;;;;;;3.60;0.85;;;10.80;99.90;;;;;;5072872;28;20032;-76
2022/11/18 01:10:30;;;;;;;4.28;0.90;;;10.80;99.90;;;;;;5071114;28;20055;-76
2022/11/18 01:15:43;;;;;;;1.83;0.50;;;10.80;99.90;;;;;;5072575;28;20043;-76
2022/11/18 01:18:09;;;;;;;3.10;0.60;;;10.80;99.90;;;;;;5073413;28;20527;-76
2022/11/18 01:20:36;;;;;;;2.40;0.90;;;10.80;99.90;;;;;;5071368;28;20024;-77
2022/11/18 01:23:01;;;;;;;3.70;0.77;;;10.70;99.90;;;;;;5073199;28;20061;-77
2022/11/18 01:25:28;;;;;;;3.42;0.73;;;10.70;99.90;;;;;;5071063;28;20024;-77
2022/11/18 01:27:54;;;;;;;3.33;0.40;;;10.70;99.90;;;;;;5071669;28;20526;-77
2022/11/18 01:30:20;;;;;;;3.72;0.50;;;10.70;99.90;;;;;;5072506;28;20040;-79
2022/11/18 01:32:46;;;;;;;3.40;0.60;;;10.60;99.90;;;;;;5071548;28;20029;-77
2022/11/18 01:35:12;;;;;;;1.98;0.50;;;10.70;99.90;;;;;;5072828;28;20031;-77
2022/11/18 01:37:37;;;;;;;2.00;0.70;;;10.70;99.90;;;;;;5071147;28;20449;-77
2022/11/18 01:40:05;;;;;;;1.70;0.40;;;10.70;99.90;;;;;;5072950;28;20028;-77
2022/11/18 01:42:30;;;;;;;1.05;0.30;;;10.60;99.90;;;;;;5071895;28;20024;-77
2022/11/18 01:45:17;;;;;;;3.22;0.50;;;10.60;99.90;;;;;;5072664;28;20082;-77
2022/11/18 01:47:50;;;;;;;1.27;0.50;;;10.60;99.90;;;;;;5072585;28;20036;-77
2022/11/18 01:50:18;;;;;;;2.28;0.52;;;10.50;99.90;;;;;;5071619;28;20462;-77
2022/11/18 01:52:45;;;;;;;5.97;0.82;;;10.50;99.90;;;;;;5072610;28;20072;-77
2022/11/18 01:55:20;;;;;;;4.00;1.10;;;10.40;99.90;;;;;;5072891;28;20024;-77
2022/11/18 01:57:48;;;;;;;4.22;1.45;;;10.50;99.90;;;;;;5071499;28;20094;-77
2022/11/18 02:00:14;;;;;;;5.45;2.53;;;10.50;99.90;;;;;;5072544;28;20351;-77
2022/11/18 02:02:40;;;;;;;4.78;2.00;;;10.50;99.90;;;;;;5070577;28;20258;-77
2022/11/18 02:05:08;;;;;;;2.22;0.80;;;10.60;99.90;;;;;;5072835;28;20024;-77
2022/11/18 02:07:37;;;;;;;2.28;0.70;;;10.50;99.90;;;;;;5072070;28;20377;-77
2022/11/18 02:10:05;;;;;;;2.65;0.60;;;10.60;99.90;;;;;;5071187;28;20377;-77
2022/11/18 02:12:31;;;;;;;2.25;0.63;;;10.40;99.90;;;;;;5070715;28;20070;-77
2022/11/18 02:14:57;;;;;;;2.00;0.57;;;10.50;99.90;;;;;;5072478;28;20488;-77
2022/11/18 02:17:37;;;;;;;3.85;0.65;;;10.40;99.90;;;;;;5074398;28;20021;-79
2022/11/18 02:20:09;;;;;;;2.47;0.40;;;10.40;99.90;;;;;;5076878;28;20474;-77
2022/11/18 02:22:56;;;;;;;2.67;0.73;;;10.40;99.90;;;;;;5074943;28;20024;-77
2022/11/18 02:25:59;;;;;;;2.42;0.40;;;10.40;99.90;;;;;;5075944;28;20028;-78
2022/11/18 02:28:33;;;;;;;;;;;10.40;99.90;;;;;;5076005;28;20576;-78
2022/11/18 02:31:22;;;;;;;3.40;0.40;;;10.40;99.90;;;;;;5075132;28;19913;-77
2022/11/18 02:33:51;;;;;;;2.75;0.40;;;10.40;99.90;;;;;;5075026;28;20561;-76
2022/11/18 02:36:27;;;;;;;0.52;0.30;;;10.30;99.90;;;;;;5076202;28;20059;-77
2022/11/18 02:39:01;;;;;;;0.85;0.30;;;10.20;99.90;;;;;;5076300;28;20029;-77
2022/11/18 02:41:29;;;;;;;0.45;0.30;;;10.20;99.90;;;;;;5074796;28;20051;-77
2022/11/18 02:44:02;;;;;;;1.15;0.20;;;10.20;99.90;;;;;;5076075;28;20048;-76
2022/11/18 02:46:32;;;;;;;1.00;0.30;;;10.20;99.90;;;;;;5074098;28;20029;-77
2022/11/18 02:49:01;;;;;;;0.50;0.30;;;10.20;99.90;;;;;;5076182;28;20462;-77
2022/11/18 02:51:30;;;;;;;1.10;0.30;;;10.10;99.90;;;;;;5075531;28;20465;-77
2022/11/18 02:54:00;;;;;;;1.15;0.32;;;10.00;99.90;;;;;;5076164;28;20032;-77
2022/11/18 02:56:27;;;;;;;0.68;0.30;;;10.00;99.90;;;;;;5075732;28;20098;-78
2022/11/18 02:58:52;;;;;;;2.70;0.30;;;10.00;99.90;;;;;;5075747;28;20486;-77
2022/11/18 03:01:27;;;;;;;2.65;0.50;;;10.00;99.90;;;;;;5074623;28;20111;-77
2022/11/18 03:03:53;;;;;;;0.73;0.20;;;10.00;99.90;;;;;;5074585;28;20032;-77
2022/11/18 03:06:35;;;;;;;3.03;0.30;;;10.00;99.90;;;;;;5075849;28;20454;-77
2022/11/18 03:09:13;;;;;;;0.93;0.30;;;10.00;99.90;;;;;;5076086;28;20063;-77
2022/11/18 03:11:45;;;;;;;0.10;0.10;;;10.00;99.90;;;;;;5072919;28;20041;-78
2022/11/18 03:14:21;;;;;;;4.75;0.40;;;10.00;99.90;;;;;;5074612;28;20025;-76
2022/11/18 03:16:59;;;;;;;0.20;0.20;;;9.90;99.90;;;;;;5072551;28;20036;-76
2022/11/18 03:19:49;;;;;;;2.20;0.30;;;9.90;99.90;;;;;;5074154;28;20028;-77
2022/11/18 03:22:31;;;;;;;2.25;0.40;;;9.90;99.90;;;;;;5074323;28;20025;-75
2022/11/18 03:25:10;;;;;;;3.90;0.47;;;9.90;99.90;;;;;;5072958;28;20024;-76
2022/11/18 03:28:12;;;;;;;0.60;0.30;;;9.90;99.90;;;;;;5072039;28;20466;-77
2022/11/18 03:30:46;;;;;;;0.70;0.47;;;9.90;99.90;;;;;;5061372;28;20040;-77
2022/11/18 03:33:18;;;;;;;1.70;0.20;;;9.90;99.90;;;;;;5074240;28;20033;-76
2022/11/18 03:35:46;;;;;;;4.07;0.35;;;9.90;99.90;;;;;;5072264;28;20127;-76
2022/11/18 03:38:24;;;;;;;2.92;0.43;;;9.90;99.90;;;;;;5073731;28;20032;-76
2022/11/18 03:40:54;;;;;;;0.50;0.32;;;9.90;99.90;;;;;;5072320;28;20039;-76
2022/11/18 03:43:25;;;;;;;1.25;0.30;;;9.90;99.90;;;;;;5072799;28;20522;-76
2022/11/18 03:46:05;;;;;;;0.70;0.30;;;9.90;99.90;;;;;;5072507;28;20029;-76
2022/11/18 03:48:36;;;;;;;2.20;0.43;;;9.90;99.90;;;;;;5073394;28;20111;-76
2022/11/18 03:51:09;;;;;;;2.17;0.50;;;9.90;99.90;;;;;;5072722;28;20359;-76
2022/11/18 03:53:40;;;;;;;1.50;0.43;;;9.90;99.90;;;;;;5044978;28;20021;-76
2022/11/18 03:56:11;;;;;;;3.05;0.30;;;9.80;99.90;;;;;;5065944;28;20028;-76
2022/11/18 03:59:15;;;;;;;1.40;0.35;;;9.80;99.90;;;;;;5051920;28;20032;-76
2022/11/18 04:01:44;;;;;;;1.80;0.50;;;9.80;99.90;;;;;;5053486;28;20387;-76
2022/11/18 04:04:11;;;;;;;2.13;0.40;;;9.80;99.90;;;;;;5057716;28;20028;-76
2022/11/18 04:06:49;;;;;;;0.93;0.28;;;9.80;99.90;;;;;;5052056;28;20058;-76
2022/11/18 04:09:28;;;;;;;2.08;0.43;;;9.80;99.90;;;;;;5067441;28;20029;-76
2022/11/18 04:12:09;;;;;;;3.53;0.60;;;9.90;99.90;;;;;;5014861;28;1069999;-76
2022/11/18 04:14:37;;;;;;;1.35;0.40;;;9.90;99.90;;;;;;5052503;28;20071;-76
2022/11/18 04:17:14;;;;;;;2.05;0.30;;;9.80;99.90;;;;;;5068674;28;20075;-76
2022/11/18 04:19:40;;;;;;;1.67;0.32;;;9.80;99.90;;;;;;5062033;28;20044;-76
2022/11/18 04:22:07;;;;;;;1.90;0.40;;;9.80;99.90;;;;;;5064582;28;20029;-76
2022/11/18 04:24:32;;;;;;;2.53;0.40;;;9.80;99.90;;;;;;5053510;28;20029;-77
2022/11/18 04:26:58;;;;;;;1.92;0.30;;;9.80;99.90;;;;;;5074198;28;20377;-76
2022/11/18 04:29:24;;;;;;;2.72;0.45;;;9.80;99.90;;;;;;5065192;28;20029;-76
2022/11/18 04:31:49;;;;;;;2.13;0.38;;;9.80;99.90;;;;;;5062659;28;20041;-76
2022/11/18 04:34:15;;;;;;;3.05;0.30;;;9.70;99.90;;;;;;5072591;28;20027;-76
2022/11/18 04:36:40;;;;;;;2.22;0.35;;;9.80;99.90;;;;;;5072064;28;20028;-77
2022/11/18 04:39:06;;;;;;;0.45;0.20;;;9.80;99.90;;;;;;5072916;28;20497;-76
2022/11/18 04:44:16;;;;;;;4.38;0.30;;;9.70;99.90;;;;;;5073674;28;20122;-75
2022/11/18 04:46:42;;;;;;;1.70;0.28;;;9.70;99.90;;;;;;5053947;28;20067;-75
2022/11/18 04:49:09;;;;;;;1.65;0.30;;;9.70;99.90;;;;;;5053372;28;20430;-75
2022/11/18 04:51:35;;;;;;;1.33;0.20;;;9.70;99.90;;;;;;5048466;28;20029;-75
2022/11/18 04:54:02;;;;;;;1.67;0.50;;;9.70;99.90;;;;;;5051876;28;20025;-74
2022/11/18 04:56:28;;;;;;;1.88;0.28;;;9.70;99.90;;;;;;5051677;28;20036;-78
2022/11/18 04:58:54;;;;;;;0.73;0.20;;;9.70;99.90;;;;;;5071849;28;20378;-75
2022/11/18 05:01:19;;;;;;;5.15;0.20;;;9.60;99.90;;;;;;5064947;28;20031;-75
2022/11/18 05:03:45;;;;;;;1.05;0.20;;;9.50;99.90;;;;;;5051704;28;20029;-75
2022/11/18 05:06:10;;;;;;;2.42;0.40;;;9.50;99.90;;;;;;5052257;28;20458;-75
2022/11/18 05:08:36;;;;;;;2.78;0.20;;;9.50;99.90;;;;;;5051540;28;20033;-75
2022/11/18 05:13:50;;;;;;;0.63;0.13;;;9.40;99.90;;;;;;5063104;28;20043;-74
2022/11/18 05:16:17;;;;;;;1.48;0.15;;;9.40;99.90;;;;;;5071598;28;20111;-74
2022/11/18 05:18:42;;;;;;;2.22;0.20;;;9.40;99.90;;;;;;5069375;28;20033;-75
2022/11/18 05:21:08;;;;;;;0.52;0.35;;;9.40;99.90;;;;;;5051703;28;20029;-75
2022/11/18 05:23:34;;;;;;;0.30;0.20;;;9.40;99.90;;;;;;5050980;28;20025;-76
2022/11/18 05:26:07;;;;;;;1.23;0.20;;;9.40;99.90;;;;;;5053084;28;20033;-75
2022/11/18 05:28:33;;;;;;;1.20;0.20;;;9.30;99.90;;;;;;5051323;28;20033;-76
2022/11/18 05:30:58;;;;;;;1.05;0.20;;;9.30;99.90;;;;;;5051583;28;20111;-74
2022/11/18 05:33:24;;;;;;;0.75;0.20;;;9.30;99.90;;;;;;5052812;28;20626;-75
2022/11/18 05:35:50;;;;;;;0.52;0.30;;;9.30;99.90;;;;;;5061419;28;20028;-76
2022/11/18 05:38:15;;;;;;;0.40;0.17;;;9.20;99.90;;;;;;5057846;28;20041;-75
2022/11/18 05:40:42;;;;;;;2.22;0.22;;;9.20;99.90;;;;;;5049859;28;20017;-75
2022/11/18 05:43:10;;;;;;;2.22;0.32;;;9.00;99.90;;;;;;5051071;28;20057;-75
2022/11/18 05:45:37;;;;;;;3.10;0.95;;;9.10;99.90;;;;;;5051693;28;20052;-76
2022/11/18 05:48:03;;;;;;;2.60;0.38;;;9.10;99.90;;;;;;5063595;28;20484;-75
2022/11/18 05:50:30;;;;;;;0.63;0.28;;;9.10;99.90;;;;;;5072148;28;20029;-75
2022/11/18 05:52:57;;;;;;;1.38;0.30;;;9.10;99.90;;;;;;5058930;28;20421;-75
2022/11/18 05:55:27;;;;;;;1.17;0.20;;;9.10;99.90;;;;;;5071140;28;20541;-75
2022/11/18 05:57:53;;;;;;;0.47;0.10;;;9.10;99.90;;;;;;5071948;28;20119;-75
2022/11/18 06:00:19;;;;;;;0.30;0.25;;;9.10;99.90;;;;;;5072490;28;20100;-75
2022/11/18 06:02:47;;;;;;;0.50;0.20;;;9.10;99.90;;;;;;5068516;28;20127;-75
2022/11/18 06:05:13;;;;;;;0.45;0.20;;;9.00;99.90;;;;;;5055863;28;20378;-75
2022/11/18 06:07:42;;;;;;;0.40;0.20;;;9.00;99.90;;;;;;5061971;28;20433;-76
2022/11/18 06:10:14;;;;;;;0.50;0.30;;;8.90;99.90;;;;;;5051451;28;20040;-75
2022/11/18 06:12:44;;;;;;;0.90;0.15;;;8.90;99.90;;;;;;5066536;28;20032;-75
2022/11/18 06:15:21;;;;;;;2.97;0.20;;;8.90;99.90;;;;;;5055064;28;20040;-74
2022/11/18 06:18:01;;;;;;;0.70;0.20;;;8.90;99.90;;;;;;5061102;28;20395;-75
2022/11/18 06:20:27;;;;;;;0.50;0.30;;;8.90;99.90;;;;;;5050822;28;20025;-75
2022/11/18 06:22:55;;;;;;;0.63;0.20;;;8.90;99.90;;;;;;5058665;28;20086;-75
2022/11/18 06:25:22;;;;;;;1.80;0.47;;;8.90;99.90;;;;;;5071992;28;20077;-75
2022/11/18 06:27:49;;;;;;;0.90;0.30;;;9.00;99.90;;;;;;5071502;28;20033;-75
2022/11/18 06:30:15;;;;;;;0.57;0.20;;;8.90;99.90;;;;;;5070773;28;20086;-74
2022/11/18 06:32:40;;;;;;;2.97;0.40;;;8.90;99.90;;;;;;5071604;28;20032;-74
2022/11/18 06:35:06;;;;;;;1.23;0.20;;;8.90;99.90;;;;;;5072207;28;20024;-74
2022/11/18 06:37:32;;;;;;;0.25;0.20;;;8.90;99.90;;;;;;5063644;28;20109;-77
2022/11/18 06:39:58;;;;;;;0.32;0.10;;;8.80;99.90;;;;;;5061278;28;20108;-74
2022/11/18 06:45:10;;;;;;;1.88;0.60;;;8.80;99.90;;;;;;5032087;28;20061;-74
2022/11/18 06:47:35;;;;;;;0.35;0.20;;;8.80;99.90;;;;;;5030119;28;20467;-76
2022/11/18 06:50:01;;;;;;;0.30;0.20;;;8.80;99.90;;;;;;5047378;28;20029;-74
2022/11/18 06:52:27;;;;;;;1.38;0.20;;;8.90;99.90;;;;;;5041139;28;20025;-74
2022/11/18 06:54:52;;;;;;;0.75;0.30;;;8.90;99.90;;;;;;5050038;28;20631;-74
2022/11/18 06:57:18;;;;;;;1.30;0.45;;;8.90;99.90;;;;;;5056293;28;20104;-74
2022/11/18 06:59:43;;;;;;;5.05;0.50;;;8.90;99.90;;;;;;5069963;28;20040;-74
2022/11/18 07:02:09;;;;;;;0.40;0.40;;;8.90;99.90;;;;;;5071947;28;20454;-75
2022/11/18 07:04:38;;;;;;;1.50;0.40;;;8.90;99.90;;;;;;5074732;28;20027;-77
2022/11/18 07:07:04;;;;;;;1.15;0.40;;;8.90;99.90;;;;;;5058820;28;20432;-73
2022/11/18 07:09:30;;;;;;;3.08;0.40;;;8.90;99.90;;;;;;5065909;28;20071;-73
2022/11/18 07:11:56;;;;;;;1.13;0.20;;;8.90;99.90;;;;;;5054403;28;20083;-74
2022/11/18 07:14:21;;;;;;;0.80;0.40;;;8.90;99.90;;;;;;5068629;28;20025;-74
2022/11/18 07:16:47;;;;;;;0.57;0.25;;;8.90;99.90;;;;;;5057749;28;20021;-75
2022/11/18 07:19:13;;;;;;;2.03;0.25;;;8.90;99.90;;;;;;5069525;28;20481;-74
2022/11/18 07:21:39;;;;;;;1.27;0.30;;;8.90;99.90;;;;;;5058522;28;20033;-75
2022/11/18 07:24:06;;;;;;;2.67;0.35;;;8.90;99.90;;;;;;5054471;28;20039;-73
2022/11/18 07:26:33;;;;;;;1.27;0.20;;;8.90;99.90;;;;;;5070180;28;20112;-74
2022/11/18 07:28:58;;;;;;;0.82;0.17;;;8.80;99.90;;;;;;5041556;28;20032;-74
2022/11/18 07:31:24;;;;;;;0.47;0.10;;;8.80;99.90;;;;;;5067244;28;20104;-74
2022/11/18 07:33:53;;;;;;;1.38;0.50;;;8.90;99.90;;;;;;5064260;28;20036;-74
2022/11/18 07:36:21;;;;;;;0.40;0.30;;;8.90;99.90;;;;;;5054466;28;20032;-74
2022/11/18 07:38:47;;;;;;;1.17;0.30;;;8.90;99.90;;;;;;5070598;28;20115;-74
2022/11/18 07:41:19;;;;;;;1.58;0.30;;;8.90;99.90;;;;;;5060022;28;20077;-74
2022/11/18 07:43:45;;;;;;;0.57;0.38;;;8.90;99.90;;;;;;5062343;28;20033;-74
2022/11/18 07:46:13;;;;;;;0.68;0.40;;;8.90;99.90;;;;;;5067036;28;20421;-74
2022/11/18 07:48:40;;;;;;;0.55;0.30;;;8.90;99.90;;;;;;5072663;28;20032;-75
2022/11/18 07:51:06;;;;;;;0.65;0.40;;;8.90;99.90;;;;;;5068432;28;20029;-75
2022/11/18 07:53:33;;;;;;;2.30;0.40;;;8.90;99.90;;;;;;5061264;28;20103;-75
2022/11/18 07:55:59;;;;;;;0.50;0.30;;;8.90;99.90;;;;;;5072926;28;20393;-74
2022/11/18 07:58:25;;;;;;;0.50;0.32;;;8.90;99.90;;;;;;5057541;28;20086;-76
2022/11/18 08:00:51;;;;;;;1.95;0.88;;;8.90;99.90;;;;;;5068875;28;20028;-75
2022/11/18 08:03:16;;;;;;;0.85;0.60;;;8.90;99.90;;;;;;5058813;28;20166;-75
2022/11/18 08:05:42;;;;;;;0.75;0.60;;;9.00;99.90;;;;;;5073615;28;20021;-76
2022/11/18 08:08:07;;;;;;;1.40;0.85;;;9.00;99.90;;;;;;5060018;28;20032;-77
2022/11/18 08:10:33;;;;;;;2.03;0.70;;;9.00;99.90;;;;;;5053150;28;20136;-76
2022/11/18 08:12:59;;;;;;;2.72;1.17;;;9.00;99.90;;;;;;5071651;28;20043;-77
2022/11/18 08:15:24;;;;;;;4.47;1.15;;;9.00;99.90;;;;;;5065401;28;20024;-76
2022/11/18 08:17:50;;;;;;;3.92;1.02;;;9.10;99.90;;;;;;5052604;28;20478;-76
2022/11/18 08:20:16;;;;;;;0.60;0.50;;;9.10;99.90;;;;;;5068162;28;20025;-76
2022/11/18 08:22:41;;;;;;;1.33;0.50;;;9.10;99.90;;;;;;5056615;28;20025;-77
2022/11/18 08:25:07;;;;;;;1.85;0.68;;;9.10;99.90;;;;;;5073177;28;20021;-76
2022/11/18 08:27:33;;;;;;;0.52;0.52;;;9.10;99.90;;;;;;5074188;28;20024;-77
2022/11/18 08:29:59;;;;;;;3.78;0.40;;;9.10;99.90;;;;;;5060455;28;20764;-77
2022/11/18 08:32:24;;;;;;;2.65;0.60;;;9.20;99.90;;;;;;5054007;28;20432;-75
2022/11/18 08:34:50;;;;;;;1.00;0.57;;;9.20;99.90;;;;;;5053766;28;20033;-75
2022/11/18 08:37:16;;;;;;;1.88;0.50;;;9.20;99.90;;;;;;5059755;28;20063;-75
2022/11/18 08:39:42;;;;;;;2.03;0.50;;;9.30;99.90;;;;;;5058999;28;20028;-75
2022/11/18 08:42:09;;;;;;;0.90;0.30;;;9.30;99.90;;;;;;5052133;28;20371;-75
2022/11/18 08:44:35;;;;;;;3.33;0.40;;;9.30;99.90;;;;;;5053568;28;20415;-76
2022/11/18 08:47:00;;;;;;;1.65;0.50;;;9.30;99.90;;;;;;5055080;28;20492;-76
2022/11/18 08:49:27;;;;;;;0.75;0.50;;;9.30;99.90;;;;;;5053604;28;20059;-76
2022/11/18 08:51:52;;;;;;;0.52;0.40;;;9.30;99.90;;;;;;5051161;28;20116;-75
2022/11/18 08:54:18;;;;;;;1.38;0.70;;;9.30;99.90;;;;;;5054740;28;20104;-76
2022/11/18 08:56:44;;;;;;;1.70;0.65;;;9.30;99.90;;;;;;5052886;28;20025;-74
2022/11/18 08:59:09;;;;;;;0.98;0.65;;;9.30;99.90;;;;;;5051426;28;20025;-75
2022/11/18 09:01:36;;;;;;;1.90;0.80;;;9.40;99.90;;;;;;5052696;28;20036;-75
2022/11/18 09:04:03;;;;;;;0.88;0.68;;;9.40;99.90;;;;;;5055273;28;20029;-75
2022/11/18 09:06:28;;;;;;;2.25;1.05;;;9.40;99.90;;;;;;5058260;28;20037;-75
2022/11/18 09:08:54;;;;;;;2.88;1.08;;;9.50;99.90;;;;;;5057821;28;20029;-76
2022/11/18 09:11:22;;;;;;;2.88;0.90;;;9.50;99.90;;;;;;5055470;28;20112;-76
2022/11/18 09:13:52;;;;;;;1.67;0.80;;;9.50;99.90;;;;;;5052201;28;20530;-76
2022/11/18 09:16:17;;;;;;;3.20;1.00;;;9.60;99.90;;;;;;5062200;28;20025;-76
2022/11/18 09:18:43;;;;;;;2.63;1.00;;;9.60;99.90;;;;;;5062301;28;20470;-77
2022/11/18 09:21:09;;;;;;;3.13;1.23;;;9.60;99.90;;;;;;5053859;28;20057;-77
2022/11/18 09:23:36;;;;;;;3.20;1.00;;;9.60;99.90;;;;;;5052236;28;20025;-77
2022/11/18 09:26:08;;;;;;;2.13;1.02;;;9.50;99.90;;;;;;5052269;28;20489;-78
2022/11/18 09:28:34;;;;;;;3.92;1.10;;;9.60;99.90;;;;;;5053581;28;20029;-77
2022/11/18 09:31:14;;;;;;;1.88;0.90;;;9.60;99.90;;;;;;5058580;28;20043;-77
2022/11/18 09:33:40;;;;;;;3.00;1.20;;;9.60;99.90;;;;;;5057817;28;20120;-77
2022/11/18 09:36:16;;;;;;;7.78;1.60;;;9.60;99.90;;;;;;5061070;28;20033;-78
2022/11/18 09:38:42;;;;;;;3.70;1.52;;;9.60;99.90;;;;;;5060866;28;20429;-78
2022/11/18 09:41:29;;;;;;;2.80;1.30;;;9.70;99.90;;;;;;5073243;28;20032;-79
2022/11/18 09:44:19;;;;;;;4.40;1.70;;;9.70;99.90;;;;;;5070345;28;20035;-77
2022/11/18 09:47:23;;;;;;;3.65;1.60;;;9.70;99.90;;;;;;5069640;28;20531;-79
2022/11/18 09:49:49;;;;;;;5.22;1.60;;;9.80;99.90;;;;;;5039452;28;20033;-78
2022/11/18 09:52:19;;;;;;;5.78;1.60;;;9.80;99.90;;;;;;5051801;28;20039;-78
2022/11/18 09:54:46;;;;;;;2.95;1.33;;;9.80;99.90;;;;;;5053432;28;20025;-76
2022/11/18 09:57:17;;;;;;;3.15;1.42;;;9.80;99.90;;;;;;5064201;28;20033;-77
2022/11/18 09:59:43;;;;;;;2.17;1.20;;;9.90;99.90;;;;;;5060313;28;20124;-77
2022/11/18 10:02:26;;;;;;;4.07;1.60;;;9.90;99.90;;;;;;5061923;28;20155;-79
2022/11/18 10:04:56;;;;;;;3.00;1.58;;;10.00;99.90;;;;;;5056645;28;20033;-76
2022/11/18 10:07:33;;;;;;;1.60;1.33;;;10.00;99.90;;;;;;5052874;28;20167;-77
2022/11/18 10:10:08;;;;;;;6.55;2.28;;;10.00;99.90;;;;;;5051881;28;20102;-78
2022/11/18 10:13:10;;;;;;;4.63;1.65;;;10.00;99.90;;;;;;5057532;28;20029;-78
2022/11/18 10:15:42;;;;;;;3.45;2.03;;;10.00;99.90;;;;;;5060177;28;20028;-77
2022/11/18 10:18:11;;;;;;;3.38;1.60;;;10.00;99.90;;;;;;5061967;28;20040;-76
2022/11/18 10:20:58;;;;;;;3.47;1.30;;;10.10;99.90;;;;;;5063027;28;20029;-76
2022/11/18 10:23:39;;;;;;;6.03;1.70;;;10.10;99.90;;;;;;5057019;28;20381;-76
2022/11/18 10:26:05;;;;;;;2.70;1.30;;;10.20;99.90;;;;;;5064638;28;20120;-77
2022/11/18 10:28:30;;;;;;;4.68;1.52;;;10.30;99.90;;;;;;5061602;28;20495;-78
2022/11/18 10:31:07;;;;;;;4.40;1.80;;;10.40;99.90;;;;;;5062115;28;20020;-75
2022/11/18 10:33:33;;;;;;;2.85;1.95;;;10.50;99.90;;;;;;5046048;28;20069;-76
2022/11/18 10:36:18;;;;;;;4.50;1.60;;;10.60;99.90;;;;;;5068640;28;20536;-77
2022/11/18 10:38:44;;;;;;;2.05;1.40;;;10.60;99.90;;;;;;5064200;28;20025;-77
2022/11/18 10:41:14;;;;;;;2.17;1.70;;;10.60;99.90;;;;;;5056243;28;20556;-78
2022/11/18 10:43:53;;;;;;;2.20;1.30;;;10.60;99.90;;;;;;5062247;28;20025;-76
2022/11/18 10:46:32;;;;;;;2.63;1.60;;;10.60;99.90;;;;;;5054565;28;20021;-77
2022/11/18 10:49:07;;;;;;;3.78;1.45;;;10.60;99.90;;;;;;5041749;28;20115;-75
2022/11/18 10:51:33;;;;;;;4.25;1.55;;;10.70;99.90;;;;;;5061539;28;20029;-78
2022/11/18 10:54:17;;;;;;;4.15;1.60;;;10.60;99.90;;;;;;5068587;28;20029;-77
2022/11/18 10:56:46;;;;;;;4.20;1.77;;;10.70;99.90;;;;;;5066514;28;20095;-77
2022/11/18 10:59:39;;;;;;;3.33;1.80;;;10.70;99.90;;;;;;5073673;28;20043;-78
2022/11/18 11:02:39;;;;;;;4.78;1.17;;;10.70;99.90;;;;;;5063409;28;20052;-78
2022/11/18 11:05:22;;;;;;;3.95;1.00;;;10.60;99.90;;;;;;5046273;28;20097;-77
2022/11/18 11:08:20;;;;;;;2.05;0.80;;;10.70;99.90;;;;;;5060902;28;20735;-74
2022/11/18 11:10:57;;;;;;;3.78;1.13;;;10.90;99.90;;;;;;5060651;28;20511;-74
2022/11/18 11:13:26;;;;;;;1.85;0.80;;;10.90;99.90;;;;;;5057501;28;20029;-74
2022/11/18 11:15:56;;;;;;;1.90;0.90;;;10.90;99.90;;;;;;5063163;28;20041;-76
2022/11/18 11:18:42;;;;;;;2.22;0.70;;;11.00;99.90;;;;;;5069854;28;20435;-78
2022/11/18 11:21:15;;;;;;;2.55;1.10;;;11.00;99.90;;;;;;5036241;28;20040;-78
2022/11/18 11:23:42;;;;;;;1.02;0.63;;;11.00;99.90;;;;;;5035048;28;20486;-78
2022/11/18 11:26:53;;;;;;;1.52;0.55;;;11.00;99.90;;;;;;5051002;28;20082;-78
2022/11/18 11:29:36;;;;;;;1.30;0.55;;;11.00;99.90;;;;;;5017010;28;20576;-78
2022/11/18 11:32:10;;;;;;;1.50;0.43;;;11.10;99.90;;;;;;5029227;28;20123;-77
2022/11/18 11:34:58;;;;;;;5.57;0.70;;;11.20;99.90;;;;;;5061326;28;20048;-78
2022/11/18 11:37:32;;;;;;;2.03;0.70;;;11.20;99.90;;;;;;5054173;28;20029;-77
2022/11/18 11:40:29;;;;;;;1.90;0.80;;;11.30;99.90;;;;;;5065375;28;20035;-78
2022/11/18 11:43:32;;;;;;;4.82;0.85;;;11.20;99.90;;;;;;5037310;28;20044;-79
2022/11/18 11:46:16;;;;;;;1.50;0.50;;;11.20;99.90;;;;;;5055836;28;20016;-77
2022/11/18 11:49:06;;;;;;;1.30;0.60;;;11.20;99.90;;;;;;5055044;28;20479;-76
2022/11/18 11:51:50;;;;;;;1.63;0.50;;;11.20;99.90;;;;;;5069103;28;20021;-73
2022/11/18 11:54:22;;;;;;;1.25;0.73;;;11.20;99.90;;;;;;5053685;28;20051;-76
2022/11/18 11:57:04;;;;;;;3.50;0.85;;;11.20;99.90;;;;;;5053231;28;20031;-77
2022/11/18 11:59:35;;;;;;;2.58;0.50;;;11.20;99.90;;;;;;5054615;28;20057;-77
2022/11/18 12:02:38;;;;;;;1.95;0.88;;;11.20;99.90;;;;;;5054506;28;20627;-77
2022/11/18 12:05:34;;;;;;;1.55;0.63;;;11.30;99.90;;;;;;5054464;28;20029;-77
2022/11/18 12:08:13;;;;;;;2.05;0.60;;;11.40;99.90;;;;;;5050006;28;20486;-76
2022/11/18 12:11:02;;;;;;;1.38;0.60;;;11.40;99.90;;;;;;5064773;28;20535;-78
2022/11/18 12:13:51;;;;;;;2.55;0.68;;;11.30;99.90;;;;;;5053844;28;20029;-78
2022/11/18 12:16:28;;;;;;;5.10;1.20;;;11.30;99.90;;;;;;5070294;28;20029;-79
2022/11/18 12:18:59;;;;;;;2.40;0.80;;;11.20;99.90;;;;;;5072002;28;20024;-79
2022/11/18 12:21:59;;;;;;;3.65;0.82;;;11.20;99.90;;;;;;5065824;28;20024;-75
2022/11/18 12:24:29;;;;;;;1.98;0.68;;;11.30;99.90;;;;;;5042279;28;20517;-76
2022/11/18 12:26:57;;;;;;;5.80;0.63;;;11.30;99.90;;;;;;5060287;28;20029;-78
2022/11/18 12:29:26;;;;;;;2.75;0.70;;;11.30;99.90;;;;;;5064978;28;20025;-79
2022/11/18 12:32:02;;;;;;;5.43;0.82;;;11.40;99.90;;;;;;5052884;28;20541;-79
2022/11/18 12:34:28;;;;;;;3.33;0.80;;;11.40;99.90;;;;;;5063459;28;20032;-80
2022/11/18 12:36:54;;;;;;;2.35;0.50;;;11.50;99.90;;;;;;5052905;28;20028;-83
2022/11/18 12:39:22;;;;;;;2.55;0.80;;;11.60;99.90;;;;;;5053243;28;20040;-75
2022/11/18 12:44:41;;;;;;;2.92;0.65;;;11.80;99.90;;;;;;5071224;28;20028;-77
2022/11/18 12:47:26;;;;;;;4.65;0.77;;;11.90;99.90;;;;;;5067252;28;20386;-75
2022/11/18 12:49:58;;;;;;;3.90;1.15;;;11.90;99.90;;;;;;5052251;28;20546;-77
2022/11/18 12:52:30;;;;;;;3.03;0.75;;;11.80;99.90;;;;;;5054563;28;20029;-77
2022/11/18 12:55:18;;;;;;;1.77;0.70;;;11.70;99.90;;;;;;5059282;28;20025;-76
2022/11/18 12:57:44;;;;;;;6.03;1.05;;;11.70;99.90;;;;;;5052728;28;20458;-76
2022/11/18 13:00:21;;;;;;;3.45;0.70;;;11.70;99.90;;;;;;5054414;28;20064;-76
2022/11/18 13:02:52;;;;;;;4.18;0.60;;;11.80;99.90;;;;;;5053919;28;20120;-78
2022/11/18 13:05:31;;;;;;;0.80;0.60;;;11.80;99.90;;;;;;5072247;28;20055;-75
2022/11/18 13:08:12;;;;;;;1.77;0.40;;;12.00;99.90;;;;;;5072623;28;20312;-75
2022/11/18 13:11:43;;;;;;;1.70;0.40;;;12.30;99.90;;;;;;5056291;28;20386;-79
2022/11/18 13:13:42;;;;;;;1.35;0.50;;;12.30;99.90;;;;;;5062125;28;20104;-76
2022/11/18 13:19:06;;;;;;;3.65;0.50;;;12.20;99.90;;;;;;5048789;28;20039;-75
2022/11/18 13:24:19;;;;;;;2.35;0.50;;;12.10;99.90;;;;;;5055879;28;20032;-76
2022/11/18 13:26:46;;;;;;;5.50;0.40;;;12.10;99.90;;;;;;5054294;28;20595;-75
2022/11/18 13:29:36;;;;;;;2.67;0.77;;;12.00;99.90;;;;;;5052994;28;20359;-76
2022/11/18 13:32:14;;;;;;;4.63;0.68;;;12.10;99.90;;;;;;5065161;28;20166;-77
2022/11/18 13:34:50;;;;;;;1.95;0.70;;;12.20;99.90;;;;;;5062853;28;20029;-80
2022/11/18 13:37:23;;;;;;;2.17;0.82;;;12.10;99.90;;;;;;5066204;28;20067;-77